Time;durP1;ratioP1;P1;durP2;ratioP2;P2;SDS_P1;SDS_P2;PMS_P1;PMS_P2;Temp;Humidity;BMP_temperature;BMP_pressure;BME280_temperature;BME280_humidity;BME280_pressure;Samples;Min_cycle;Max_cycle;Signal;HPM_P1;HPM_P2
2022/03/05 00:00:44;;;;;;;17.00;7.53;;;24.50;99.90;;;;;;5054461;28;20194;-83
2022/03/05 00:03:15;;;;;;;16.65;7.22;;;24.50;99.90;;;;;;5041262;28;20222;-83
2022/03/05 00:05:46;;;;;;;16.08;7.47;;;24.50;99.90;;;;;;5044225;28;20197;-82
2022/03/05 00:08:17;;;;;;;16.83;8.07;;;24.50;99.90;;;;;;5035720;28;20190;-82
2022/03/05 00:10:48;;;;;;;17.20;8.57;;;24.60;99.90;;;;;;5055189;28;20263;-83
2022/03/05 00:13:18;;;;;;;14.90;7.68;;;24.70;99.90;;;;;;5055669;28;20200;-82
2022/03/05 00:15:52;;;;;;;14.35;7.53;;;24.70;99.90;;;;;;5055652;28;20190;-84
2022/03/05 00:18:22;;;;;;;17.65;8.23;;;24.80;99.90;;;;;;5055618;28;20240;-82
2022/03/05 00:20:53;;;;;;;16.50;8.27;;;24.70;99.90;;;;;;5053542;28;20205;-82
2022/03/05 00:23:25;;;;;;;15.35;8.13;;;24.80;99.90;;;;;;5036052;28;20191;-82
2022/03/05 00:25:56;;;;;;;17.38;8.32;;;24.80;99.90;;;;;;5045943;28;20701;-82
2022/03/05 00:28:27;;;;;;;19.23;9.00;;;24.80;99.90;;;;;;5039102;28;20186;-83
2022/03/05 00:31:00;;;;;;;18.58;9.55;;;24.90;99.90;;;;;;5042872;28;20213;-83
2022/03/05 00:33:31;;;;;;;16.83;9.23;;;25.00;99.90;;;;;;5050567;28;20204;-81
2022/03/05 00:36:01;;;;;;;18.85;9.20;;;25.10;99.90;;;;;;5040311;28;20242;-83
2022/03/05 00:38:32;;;;;;;23.38;9.65;;;25.10;99.90;;;;;;5045710;28;20225;-82
2022/03/05 00:41:03;;;;;;;21.00;11.02;;;25.20;99.90;;;;;;5040109;28;20198;-84
2022/03/05 00:43:33;;;;;;;20.00;10.82;;;25.20;99.90;;;;;;5049835;28;20190;-83
2022/03/05 00:46:06;;;;;;;19.30;10.77;;;25.20;99.90;;;;;;5046415;28;20197;-84
2022/03/05 00:48:36;;;;;;;19.05;10.50;;;25.30;99.90;;;;;;5053799;28;20204;-82
2022/03/05 00:51:07;;;;;;;20.92;10.35;;;25.20;99.90;;;;;;5048740;28;20210;-83
2022/03/05 00:53:38;;;;;;;16.27;10.02;;;25.20;99.90;;;;;;5041957;28;20232;-85
2022/03/05 00:56:08;;;;;;;18.63;10.43;;;25.20;99.90;;;;;;5044889;28;20225;-84
2022/03/05 00:58:39;;;;;;;19.83;10.85;;;25.20;99.90;;;;;;5047897;28;20248;-84
2022/03/05 01:01:12;;;;;;;20.50;10.27;;;25.10;99.90;;;;;;5047135;28;20209;-83
2022/03/05 01:03:43;;;;;;;17.63;9.90;;;25.00;99.90;;;;;;5036394;28;20600;-85
2022/03/05 01:06:13;;;;;;;17.83;10.45;;;25.00;99.90;;;;;;5051921;28;20197;-84
2022/03/05 01:08:44;;;;;;;17.50;10.00;;;24.90;99.90;;;;;;5043005;28;20259;-84
2022/03/05 01:11:16;;;;;;;17.15;9.80;;;25.00;99.90;;;;;;5042772;28;20217;-85
2022/03/05 01:13:47;;;;;;;18.33;9.90;;;24.90;99.90;;;;;;5016270;28;20653;-85
2022/03/05 01:16:20;;;;;;;19.25;10.23;;;25.00;99.90;;;;;;5035828;28;20191;-83
2022/03/05 01:18:51;;;;;;;17.45;10.45;;;25.00;99.90;;;;;;5047095;28;20186;-85
2022/03/05 01:21:21;;;;;;;17.02;9.43;;;25.00;99.90;;;;;;5049452;28;20575;-85
2022/03/05 01:23:52;;;;;;;18.75;10.10;;;25.00;99.90;;;;;;5047898;28;20222;-84
2022/03/05 01:26:23;;;;;;;17.50;10.27;;;25.00;99.90;;;;;;5045310;28;20205;-84
2022/03/05 01:28:54;;;;;;;16.98;9.77;;;25.00;99.90;;;;;;5046836;28;20222;-84
2022/03/05 01:31:26;;;;;;;17.10;9.82;;;25.10;99.90;;;;;;5037431;28;20215;-85
2022/03/05 01:34:06;;;;;;;16.83;9.05;;;25.10;99.90;;;;;;5046479;28;20573;-86
2022/03/05 01:36:37;;;;;;;16.42;10.02;;;25.20;99.90;;;;;;5042494;28;20277;-86
2022/03/05 01:39:08;;;;;;;15.77;9.65;;;25.40;99.90;;;;;;5048574;28;20229;-88
2022/03/05 01:41:39;;;;;;;14.70;9.25;;;25.40;99.90;;;;;;5046445;28;20202;-88
2022/03/05 01:44:10;;;;;;;18.48;9.70;;;25.50;99.90;;;;;;5045171;28;20248;-87
2022/03/05 01:46:43;;;;;;;17.67;10.15;;;25.60;99.90;;;;;;5034115;28;20198;-86
2022/03/05 01:49:17;;;;;;;17.02;10.48;;;25.70;99.90;;;;;;5041571;28;20189;-87
2022/03/05 01:51:54;;;;;;;16.25;9.50;;;25.70;99.90;;;;;;5039021;28;20232;-86
2022/03/05 01:54:25;;;;;;;16.35;9.57;;;25.80;99.90;;;;;;5042371;28;20661;-87
2022/03/05 01:56:58;;;;;;;15.77;9.63;;;25.70;99.90;;;;;;5046960;28;20569;-86
2022/03/05 01:59:29;;;;;;;17.40;10.32;;;25.70;99.90;;;;;;5045401;28;20195;-85
2022/03/05 02:02:01;;;;;;;14.18;8.82;;;25.70;99.90;;;;;;5035039;28;20205;-86
2022/03/05 02:04:36;;;;;;;17.30;9.80;;;25.70;99.90;;;;;;5039993;28;20571;-87
2022/03/05 02:07:14;;;;;;;15.95;9.93;;;25.70;99.90;;;;;;5042195;28;20189;-86
2022/03/05 02:09:50;;;;;;;16.45;9.88;;;25.80;99.90;;;;;;5046918;28;20222;-87
2022/03/05 02:12:21;;;;;;;12.88;9.00;;;25.80;99.90;;;;;;5044342;28;20194;-85
2022/03/05 02:14:52;;;;;;;15.50;10.18;;;25.80;99.90;;;;;;5040823;28;20300;-84
2022/03/05 02:17:24;;;;;;;14.52;9.88;;;25.80;99.90;;;;;;5053486;28;20193;-84
2022/03/05 02:19:55;;;;;;;16.30;10.40;;;25.80;99.90;;;;;;5045476;28;20194;-85
2022/03/05 02:22:28;;;;;;;14.77;9.68;;;25.90;99.90;;;;;;5037219;28;20226;-85
2022/03/05 02:24:59;;;;;;;15.55;10.10;;;25.90;99.90;;;;;;5044964;28;20192;-84
2022/03/05 02:27:30;;;;;;;14.77;9.95;;;25.90;99.90;;;;;;5036842;28;20649;-86
2022/03/05 02:30:01;;;;;;;14.45;10.02;;;25.90;99.90;;;;;;5041569;28;20216;-88
2022/03/05 02:32:32;;;;;;;16.65;5.97;;;26.00;99.90;;;;;;5044144;28;20202;-86
2022/03/05 02:35:03;;;;;;;13.43;5.38;;;26.00;99.90;;;;;;5041687;28;20208;-84
2022/03/05 02:37:36;;;;;;;14.65;5.60;;;26.00;99.90;;;;;;5044117;28;20225;-85
2022/03/05 02:40:08;;;;;;;15.45;5.32;;;26.00;99.90;;;;;;5040758;28;20182;-86
2022/03/05 02:42:40;;;;;;;16.52;5.18;;;26.00;99.90;;;;;;5041284;28;20259;-85
2022/03/05 02:45:17;;;;;;;18.63;6.13;;;26.10;99.90;;;;;;5045633;28;20285;-87
2022/03/05 02:47:48;;;;;;;12.15;5.75;;;26.20;99.90;;;;;;5039876;28;20634;-87
2022/03/05 02:50:19;;;;;;;14.77;5.38;;;26.20;99.90;;;;;;5049398;28;20705;-86
2022/03/05 02:52:52;;;;;;;14.05;6.75;;;26.10;99.90;;;;;;5042820;28;20204;-86
2022/03/05 02:55:23;;;;;;;15.93;6.25;;;26.10;99.90;;;;;;5045761;28;20197;-88
2022/03/05 02:57:54;;;;;;;21.38;10.80;;;26.10;99.90;;;;;;5044066;28;20198;-88
2022/03/05 03:00:24;;;;;;;21.25;8.55;;;26.10;99.90;;;;;;5040630;28;20241;-86
2022/03/05 03:02:56;;;;;;;16.48;7.03;;;26.10;99.90;;;;;;5051023;28;20193;-86
2022/03/05 03:05:27;;;;;;;11.73;6.88;;;26.10;99.90;;;;;;5037437;28;20194;-86
2022/03/05 03:07:59;;;;;;;13.02;6.70;;;26.10;99.90;;;;;;5040945;28;20195;-87
2022/03/05 03:10:30;;;;;;;13.57;7.47;;;26.10;99.90;;;;;;5037124;28;20229;-85
2022/03/05 03:13:01;;;;;;;12.13;7.72;;;26.10;99.90;;;;;;5041042;28;20306;-85
2022/03/05 03:15:34;;;;;;;13.80;8.13;;;26.10;99.90;;;;;;5049464;28;20551;-88
2022/03/05 03:18:23;;;;;;;12.45;7.30;;;26.10;99.90;;;;;;5048243;28;20191;-88
2022/03/05 03:20:57;;;;;;;11.48;7.78;;;26.10;99.90;;;;;;5045062;28;20229;-86
2022/03/05 03:23:30;;;;;;;11.25;6.78;;;26.00;99.90;;;;;;5036775;28;20262;-86
2022/03/05 03:26:03;;;;;;;10.80;6.45;;;26.10;99.90;;;;;;5041022;28;20197;-86
2022/03/05 03:28:34;;;;;;;13.43;6.90;;;26.00;99.90;;;;;;5036041;28;20220;-85
2022/03/05 03:31:08;;;;;;;13.30;6.15;;;25.90;99.90;;;;;;5046921;28;20210;-87
2022/03/05 03:33:39;;;;;;;11.15;5.20;;;25.90;99.90;;;;;;5045280;28;20273;-88
2022/03/05 03:36:09;;;;;;;13.13;6.05;;;25.80;99.90;;;;;;5033118;28;20194;-86
2022/03/05 03:38:42;;;;;;;9.95;5.70;;;25.80;99.90;;;;;;5041584;28;20230;-85
2022/03/05 03:41:16;;;;;;;9.77;4.63;;;25.80;99.90;;;;;;5053043;28;20214;-86
2022/03/05 03:43:46;;;;;;;11.30;4.65;;;25.80;99.90;;;;;;5052740;28;20205;-86
2022/03/05 03:46:23;;;;;;;10.68;4.22;;;25.70;99.90;;;;;;5052068;28;20654;-85
2022/03/05 03:48:54;;;;;;;8.10;4.75;;;25.80;99.90;;;;;;5052991;28;20189;-87
2022/03/05 03:51:24;;;;;;;9.18;4.55;;;25.80;99.90;;;;;;5038581;28;20210;-86
2022/03/05 03:53:57;;;;;;;8.60;4.22;;;25.80;99.90;;;;;;5032553;28;20600;-85
2022/03/05 03:56:28;;;;;;;7.43;4.28;;;25.90;99.90;;;;;;5032605;28;20300;-85
2022/03/05 03:58:58;;;;;;;9.57;3.88;;;25.80;99.90;;;;;;5032641;28;20240;-85
2022/03/05 04:01:29;;;;;;;9.75;3.70;;;25.90;99.90;;;;;;5033814;28;20190;-85
2022/03/05 04:04:03;;;;;;;7.85;3.28;;;25.90;99.90;;;;;;5036195;28;20190;-86
2022/03/05 04:09:22;;;;;;;11.27;3.50;;;25.90;99.90;;;;;;5035139;28;20190;-86
2022/03/05 04:11:56;;;;;;;10.57;3.58;;;25.90;99.90;;;;;;5036246;28;20614;-85
2022/03/05 04:14:27;;;;;;;9.90;4.10;;;25.90;99.90;;;;;;5035875;28;20271;-86
2022/03/05 04:16:57;;;;;;;9.93;3.90;;;26.00;99.90;;;;;;5035806;28;20186;-84
2022/03/05 04:19:28;;;;;;;7.57;3.33;;;26.00;99.90;;;;;;5035747;28;20651;-85
2022/03/05 04:21:59;;;;;;;10.75;2.75;;;26.10;99.90;;;;;;5035705;28;20191;-85
2022/03/05 04:24:32;;;;;;;11.43;2.90;;;26.10;99.90;;;;;;5047586;28;20225;-88
2022/03/05 04:27:05;;;;;;;7.15;2.42;;;26.20;99.90;;;;;;5035870;28;20647;-85
2022/03/05 04:29:36;;;;;;;9.27;2.42;;;26.20;99.90;;;;;;5044615;28;20205;-86
2022/03/05 04:32:07;;;;;;;9.10;2.33;;;26.30;99.90;;;;;;5055261;28;20750;-87
2022/03/05 04:34:38;;;;;;;9.38;2.35;;;26.30;99.90;;;;;;5055659;28;20645;-86
2022/03/05 04:37:19;;;;;;;11.88;2.90;;;26.30;99.90;;;;;;5055488;28;20217;-86
2022/03/05 04:39:54;;;;;;;9.93;2.20;;;26.30;99.90;;;;;;5055519;28;20205;-84
2022/03/05 04:42:24;;;;;;;10.88;2.42;;;26.30;99.90;;;;;;5041582;28;20213;-87
2022/03/05 04:44:58;;;;;;;7.40;1.50;;;26.20;99.90;;;;;;5035311;28;20582;-91
2022/03/05 04:47:29;;;;;;;5.53;1.25;;;26.10;99.90;;;;;;5036785;28;20213;-90
2022/03/05 04:50:00;;;;;;;6.40;1.90;;;26.10;99.90;;;;;;5036525;28;20218;-84
2022/03/05 04:52:34;;;;;;;7.25;1.60;;;26.20;99.90;;;;;;5035302;28;20222;-85
2022/03/05 04:55:07;;;;;;;5.93;1.58;;;26.30;99.90;;;;;;5036166;28;20216;-87
2022/03/05 04:57:38;;;;;;;8.27;1.48;;;26.30;99.90;;;;;;5035893;28;20320;-85
2022/03/05 05:00:18;;;;;;;4.95;1.55;;;26.40;99.90;;;;;;5034908;28;20193;-87
2022/03/05 05:02:54;;;;;;;6.85;1.75;;;26.40;99.90;;;;;;5035078;28;20197;-92
2022/03/05 05:05:33;;;;;;;7.57;1.60;;;26.30;99.90;;;;;;5036393;28;20209;-88
2022/03/05 05:08:04;;;;;;;5.43;1.92;;;26.20;99.90;;;;;;5034910;28;20190;-88
2022/03/05 05:10:49;;;;;;;6.72;1.75;;;26.20;99.90;;;;;;5035705;28;20186;-87
2022/03/05 05:13:19;;;;;;;7.45;2.00;;;26.10;99.90;;;;;;5035253;28;20201;-89
2022/03/05 05:15:50;;;;;;;6.35;1.85;;;26.10;99.90;;;;;;5035008;28;20595;-88
2022/03/05 05:18:22;;;;;;;5.60;1.90;;;26.00;99.90;;;;;;5045028;28;20205;-87
2022/03/05 05:20:52;;;;;;;7.15;1.48;;;26.00;99.90;;;;;;5055346;28;20189;-86
2022/03/05 05:23:26;;;;;;;5.40;1.67;;;25.90;99.90;;;;;;5051897;28;20221;-90
2022/03/05 05:26:07;;;;;;;6.35;1.85;;;25.80;99.90;;;;;;5034408;28;20210;-88
2022/03/05 05:28:41;;;;;;;10.95;1.90;;;25.70;99.90;;;;;;5036252;28;20191;-89
2022/03/05 05:31:14;;;;;;;6.70;1.90;;;25.70;99.90;;;;;;5036453;28;20214;-88
2022/03/05 05:33:45;;;;;;;6.75;1.50;;;25.70;99.90;;;;;;5036669;28;20190;-85
2022/03/05 05:36:16;;;;;;;4.88;1.65;;;25.80;99.90;;;;;;5036353;28;20689;-86
2022/03/05 05:38:49;;;;;;;8.45;1.58;;;25.90;99.90;;;;;;5035710;28;20296;-89
2022/03/05 05:41:25;;;;;;;6.05;1.52;;;26.00;99.90;;;;;;5041521;28;20193;-91
2022/03/05 05:43:58;;;;;;;3.97;1.45;;;26.20;99.90;;;;;;5057262;28;20247;-89
2022/03/05 05:46:30;;;;;;;3.50;1.08;;;26.10;99.90;;;;;;5056503;28;20224;-88
2022/03/05 05:49:01;;;;;;;7.07;1.40;;;26.00;99.90;;;;;;5056446;28;20255;-87
2022/03/05 05:51:38;;;;;;;7.40;1.48;;;26.00;99.90;;;;;;5056662;28;20225;-91
2022/03/05 05:54:10;;;;;;;5.75;1.15;;;26.10;99.90;;;;;;5055194;28;20280;-91
2022/03/05 05:56:45;;;;;;;3.75;0.90;;;26.20;99.90;;;;;;5055911;28;20704;-91
2022/03/05 05:59:16;;;;;;;6.40;1.10;;;26.10;99.90;;;;;;5056440;28;20262;-92
2022/03/05 06:01:47;;;;;;;3.15;1.30;;;26.20;99.90;;;;;;5056188;28;20289;-86
2022/03/05 06:04:17;;;;;;;4.72;1.02;;;26.20;99.90;;;;;;5055210;28;20193;-85
2022/03/05 06:06:48;;;;;;;3.30;1.20;;;26.10;99.90;;;;;;5055946;28;20189;-90
2022/03/05 06:09:19;;;;;;;3.78;1.00;;;26.10;99.90;;;;;;5055450;28;20190;-90
2022/03/05 06:11:52;;;;;;;4.93;1.10;;;26.10;99.90;;;;;;5054439;28;20220;-87
2022/03/05 06:14:22;;;;;;;5.20;1.25;;;25.90;99.90;;;;;;5056472;28;20189;-90
2022/03/05 06:16:53;;;;;;;5.10;1.15;;;25.80;99.90;;;;;;5054299;28;20194;-88
2022/03/05 06:19:24;;;;;;;4.63;1.20;;;25.70;99.90;;;;;;5038183;28;20196;-91
2022/03/05 06:21:55;;;;;;;6.32;1.70;;;25.70;99.90;;;;;;5042687;28;20264;-89
2022/03/05 06:24:26;;;;;;;4.13;1.80;;;25.70;99.90;;;;;;5021668;28;20276;-89
2022/03/05 06:27:00;;;;;;;3.97;1.45;;;25.60;99.90;;;;;;5055201;28;20185;-93
2022/03/05 06:29:31;;;;;;;6.35;1.70;;;25.60;99.90;;;;;;5046383;28;20201;-86
2022/03/05 06:32:01;;;;;;;4.68;1.40;;;25.50;99.90;;;;;;5036616;28;20763;-92
2022/03/05 06:34:33;;;;;;;6.22;1.60;;;25.40;99.90;;;;;;5035887;28;20202;-90
2022/03/05 06:37:04;;;;;;;5.10;1.20;;;25.40;99.90;;;;;;5036894;28;20730;-90
2022/03/05 06:39:35;;;;;;;4.40;1.30;;;25.40;99.90;;;;;;5038298;28;20213;-91
2022/03/05 06:42:08;;;;;;;5.22;1.15;;;25.20;99.90;;;;;;5048385;28;20710;-89
2022/03/05 06:44:39;;;;;;;5.55;1.13;;;25.20;99.90;;;;;;5054619;28;20194;-94
2022/03/05 06:47:10;;;;;;;5.55;1.10;;;25.20;99.90;;;;;;5055643;28;20641;-87
2022/03/05 06:49:41;;;;;;;4.30;1.05;;;25.20;99.90;;;;;;5053740;28;20196;-91
2022/03/05 06:52:12;;;;;;;5.95;1.30;;;25.20;99.90;;;;;;5054346;28;20216;-89
2022/03/05 06:54:43;;;;;;;5.50;1.35;;;25.10;99.90;;;;;;5053655;28;20193;-90
2022/03/05 06:57:15;;;;;;;6.78;1.50;;;25.10;99.90;;;;;;5053467;28;20189;-88
2022/03/05 06:59:46;;;;;;;6.38;1.40;;;25.10;99.90;;;;;;5054108;28;20189;-87
2022/03/05 07:02:16;;;;;;;5.65;1.40;;;25.10;99.90;;;;;;5053193;28;20212;-88
2022/03/05 07:04:47;;;;;;;5.47;1.80;;;25.00;99.90;;;;;;5053064;28;20198;-91
2022/03/05 07:07:18;;;;;;;6.47;1.30;;;25.00;99.90;;;;;;5054680;28;20186;-88
2022/03/05 07:09:49;;;;;;;6.85;1.67;;;25.00;99.90;;;;;;5053416;28;20197;-91
2022/03/05 07:12:21;;;;;;;7.35;1.70;;;25.00;99.90;;;;;;5053823;28;20623;-86
2022/03/05 07:14:52;;;;;;;7.32;1.60;;;24.90;99.90;;;;;;5053138;28;20190;-87
2022/03/05 07:17:23;;;;;;;5.85;1.30;;;24.90;99.90;;;;;;5051248;28;20662;-89
2022/03/05 07:19:54;;;;;;;4.97;1.20;;;24.90;99.90;;;;;;5033013;28;20197;-89
2022/03/05 07:22:25;;;;;;;7.55;1.60;;;24.80;99.90;;;;;;5033506;28;20210;-89
2022/03/05 07:24:55;;;;;;;4.95;1.30;;;24.80;99.90;;;;;;5044305;28;20193;-88
2022/03/05 07:27:28;;;;;;;5.97;1.35;;;24.70;99.90;;;;;;5033009;28;20205;-86
2022/03/05 07:29:59;;;;;;;5.15;1.52;;;24.70;99.90;;;;;;5046179;28;20247;-93
2022/03/05 07:32:30;;;;;;;5.35;1.40;;;24.70;99.90;;;;;;5053839;28;20604;-88
2022/03/05 07:35:01;;;;;;;3.85;1.20;;;24.70;99.90;;;;;;5054398;28;20209;-89
2022/03/05 07:37:33;;;;;;;8.02;1.55;;;24.70;99.90;;;;;;5056933;28;20235;-91
2022/03/05 07:40:04;;;;;;;5.78;1.20;;;24.60;99.90;;;;;;5057591;28;20200;-87
2022/03/05 07:42:36;;;;;;;7.38;1.38;;;24.60;99.90;;;;;;5040607;28;20591;-88
2022/03/05 07:45:08;;;;;;;6.35;1.40;;;24.50;99.90;;;;;;5037192;28;20190;-87
2022/03/05 07:47:38;;;;;;;6.63;1.40;;;24.50;99.90;;;;;;5036788;28;20293;-88
2022/03/05 07:50:10;;;;;;;5.60;1.20;;;24.50;99.90;;;;;;5037697;28;20191;-88
2022/03/05 07:52:41;;;;;;;7.75;1.30;;;24.50;99.90;;;;;;5036840;28;20570;-88
2022/03/05 07:55:12;;;;;;;8.65;1.50;;;24.40;99.90;;;;;;5036673;28;20191;-90
2022/03/05 07:57:44;;;;;;;7.10;1.65;;;24.40;99.90;;;;;;5036753;28;20602;-92
2022/03/05 08:00:15;;;;;;;6.85;1.70;;;24.40;99.90;;;;;;5036554;28;20193;-89
2022/03/05 08:02:46;;;;;;;5.65;1.30;;;24.40;99.90;;;;;;5036179;28;20642;-89
2022/03/05 08:05:17;;;;;;;10.68;1.55;;;24.40;99.90;;;;;;5036822;28;20198;-95
2022/03/05 08:07:47;;;;;;;9.18;2.03;;;24.30;99.90;;;;;;5036839;28;20206;-86
2022/03/05 08:10:18;;;;;;;10.00;1.55;;;24.30;99.90;;;;;;5036357;28;20646;-90
2022/03/05 08:12:51;;;;;;;7.18;1.55;;;24.30;99.90;;;;;;5035874;28;20222;-88
2022/03/05 08:15:22;;;;;;;5.97;1.55;;;24.30;99.90;;;;;;5036670;28;20195;-90
2022/03/05 08:17:54;;;;;;;5.57;1.30;;;24.30;99.90;;;;;;5042989;28;20529;-88
2022/03/05 08:20:25;;;;;;;5.65;1.50;;;24.30;99.90;;;;;;5055631;28;20194;-86
2022/03/05 08:22:57;;;;;;;8.77;1.70;;;24.30;99.90;;;;;;5053978;28;20221;-87
2022/03/05 08:25:28;;;;;;;7.25;1.45;;;24.20;99.90;;;;;;5045088;28;20245;-86
2022/03/05 08:28:00;;;;;;;7.22;1.60;;;24.20;99.90;;;;;;5055726;28;20201;-86
2022/03/05 08:30:31;;;;;;;8.90;1.75;;;24.20;99.90;;;;;;5037983;28;20194;-85
2022/03/05 08:33:02;;;;;;;5.45;1.70;;;24.20;99.90;;;;;;5035422;28;20218;-85
2022/03/05 08:35:33;;;;;;;6.80;1.40;;;24.20;99.90;;;;;;5035389;28;20191;-86
2022/03/05 08:38:03;;;;;;;6.60;1.50;;;24.10;99.90;;;;;;5035430;28;20238;-87
2022/03/05 08:40:34;;;;;;;6.63;1.73;;;24.10;99.90;;;;;;5035370;28;20190;-86
2022/03/05 08:43:07;;;;;;;5.10;1.90;;;24.10;99.90;;;;;;5055339;28;20236;-87
2022/03/05 08:45:37;;;;;;;5.43;1.70;;;24.10;99.90;;;;;;5055519;28;20564;-87
2022/03/05 08:48:08;;;;;;;9.10;1.70;;;24.10;99.90;;;;;;5054820;28;20192;-86
2022/03/05 08:50:39;;;;;;;9.75;1.70;;;24.10;99.90;;;;;;5054996;28;20712;-87
2022/03/05 08:53:10;;;;;;;8.32;1.75;;;24.10;99.90;;;;;;5055246;28;20221;-88
2022/03/05 08:55:41;;;;;;;6.32;1.50;;;24.10;99.90;;;;;;5054965;28;20190;-87
2022/03/05 08:58:13;;;;;;;5.93;1.60;;;24.10;99.90;;;;;;5055933;28;20656;-86
2022/03/05 09:00:44;;;;;;;7.78;1.50;;;24.20;99.90;;;;;;5054957;28;20209;-86
2022/03/05 09:03:14;;;;;;;7.22;1.50;;;24.10;99.90;;;;;;5054964;28;20240;-87
2022/03/05 09:05:45;;;;;;;9.00;1.60;;;24.10;99.90;;;;;;5041698;28;20190;-87
2022/03/05 09:08:16;;;;;;;7.22;2.17;;;24.10;99.90;;;;;;5054704;28;20200;-84
2022/03/05 09:10:47;;;;;;;8.93;1.58;;;24.10;99.90;;;;;;5048199;28;20186;-85
2022/03/05 09:13:19;;;;;;;7.70;1.90;;;24.10;99.90;;;;;;5046481;28;20578;-84
2022/03/05 09:15:50;;;;;;;9.50;1.80;;;24.10;99.90;;;;;;5039705;28;20209;-85
2022/03/05 09:18:21;;;;;;;6.43;1.70;;;24.10;99.90;;;;;;5043277;28;20190;-85
2022/03/05 09:20:51;;;;;;;5.85;1.60;;;24.10;99.90;;;;;;5054376;28;20717;-85
2022/03/05 09:23:22;;;;;;;6.78;1.55;;;24.00;99.90;;;;;;5044493;28;20217;-84
2022/03/05 09:25:53;;;;;;;6.88;1.50;;;24.10;99.90;;;;;;5044056;28;20194;-87
2022/03/05 09:28:25;;;;;;;10.43;1.63;;;24.00;99.90;;;;;;5046924;28;20564;-89
2022/03/05 09:30:58;;;;;;;10.93;2.15;;;24.00;99.90;;;;;;5042122;28;20225;-89
2022/03/05 09:33:29;;;;;;;10.55;2.30;;;24.10;99.90;;;;;;5037711;28;20557;-84
2022/03/05 09:36:00;;;;;;;7.07;2.40;;;24.00;99.90;;;;;;5044316;28;20190;-84
2022/03/05 09:38:30;;;;;;;11.05;2.10;;;24.10;99.90;;;;;;5038300;28;20238;-86
2022/03/05 09:41:03;;;;;;;11.48;1.80;;;24.00;99.90;;;;;;5034462;28;20656;-85
2022/03/05 09:43:37;;;;;;;13.00;2.20;;;24.00;99.90;;;;;;5041757;28;20194;-87
2022/03/05 09:46:07;;;;;;;12.70;1.90;;;24.00;99.90;;;;;;5040701;28;20198;-86
2022/03/05 09:48:42;;;;;;;10.48;2.13;;;24.00;99.90;;;;;;5046525;28;20202;-89
2022/03/05 09:51:13;;;;;;;11.38;2.10;;;24.00;99.90;;;;;;5043765;28;20195;-87
2022/03/05 09:53:44;;;;;;;13.07;2.42;;;24.00;99.90;;;;;;5041274;28;20612;-84
2022/03/05 09:56:14;;;;;;;9.52;2.10;;;24.00;99.90;;;;;;5041136;28;20189;-86
2022/03/05 09:58:47;;;;;;;12.25;2.45;;;24.00;99.90;;;;;;5044894;28;20245;-84
2022/03/05 10:01:18;;;;;;;7.40;2.25;;;24.00;99.90;;;;;;5040471;28;20191;-86
2022/03/05 10:03:50;;;;;;;10.80;2.50;;;24.00;99.90;;;;;;5045934;28;20241;-84
2022/03/05 10:06:21;;;;;;;11.25;2.35;;;24.00;99.90;;;;;;5033316;28;20537;-84
2022/03/05 10:08:55;;;;;;;8.50;2.00;;;24.00;99.90;;;;;;5028992;28;20196;-84
2022/03/05 10:11:26;;;;;;;12.57;2.20;;;23.90;99.90;;;;;;5035085;28;20191;-83
2022/03/05 10:13:59;;;;;;;11.52;2.40;;;24.00;99.90;;;;;;5032420;28;20685;-85
2022/03/05 10:16:33;;;;;;;12.77;2.40;;;24.00;99.90;;;;;;5045823;28;20604;-85
2022/03/05 10:19:19;;;;;;;10.05;2.42;;;23.90;99.90;;;;;;5045818;28;20208;-85
2022/03/05 10:22:01;;;;;;;10.63;2.30;;;23.90;99.90;;;;;;5047422;28;20214;-84
2022/03/05 10:24:36;;;;;;;11.98;2.25;;;23.90;99.90;;;;;;5048753;28;20194;-84
2022/03/05 10:27:08;;;;;;;15.90;2.50;;;23.90;99.90;;;;;;5042052;28;20185;-85
2022/03/05 10:29:41;;;;;;;12.10;2.22;;;23.90;99.90;;;;;;5052267;28;20197;-84
2022/03/05 10:32:15;;;;;;;9.70;2.42;;;23.90;99.90;;;;;;5041037;28;20658;-84
2022/03/05 10:34:58;;;;;;;9.45;2.58;;;23.90;99.90;;;;;;5037247;28;20237;-86
2022/03/05 10:37:29;;;;;;;12.98;2.60;;;23.90;99.90;;;;;;5032888;28;20720;-85
2022/03/05 10:40:05;;;;;;;13.73;2.40;;;23.90;99.90;;;;;;5041528;28;20284;-87
2022/03/05 10:42:41;;;;;;;8.50;2.47;;;23.90;99.90;;;;;;5040247;28;20193;-84
2022/03/05 10:45:18;;;;;;;12.32;2.40;;;23.90;99.90;;;;;;5053171;28;20240;-84
2022/03/05 10:47:49;;;;;;;10.90;2.50;;;23.90;99.90;;;;;;5053047;28;20636;-84
2022/03/05 10:50:27;;;;;;;10.57;2.47;;;23.90;99.90;;;;;;5050011;28;20190;-86
2022/03/05 10:53:00;;;;;;;10.40;2.30;;;23.90;99.90;;;;;;5045028;28;20208;-86
2022/03/05 10:55:31;;;;;;;8.43;2.10;;;23.90;99.90;;;;;;5048711;28;20667;-86
2022/03/05 10:58:05;;;;;;;12.63;2.42;;;23.90;99.90;;;;;;5045466;28;20194;-86
2022/03/05 11:00:37;;;;;;;11.00;2.22;;;23.80;99.90;;;;;;5047221;28;20261;-86
2022/03/05 11:03:08;;;;;;;14.15;2.75;;;23.80;99.90;;;;;;5042042;28;20197;-85
2022/03/05 11:05:41;;;;;;;17.13;2.50;;;23.80;99.90;;;;;;5035740;28;20592;-86
2022/03/05 11:08:12;;;;;;;12.32;2.50;;;23.80;99.90;;;;;;5034287;28;20197;-85
2022/03/05 11:10:43;;;;;;;13.75;2.58;;;23.80;99.90;;;;;;5046327;28;20209;-85
2022/03/05 11:13:14;;;;;;;17.13;2.60;;;23.80;99.90;;;;;;5045001;28;20201;-86
2022/03/05 11:15:47;;;;;;;17.42;3.25;;;23.80;99.90;;;;;;5048002;28;20645;-86
2022/03/05 11:18:18;;;;;;;11.68;2.88;;;23.80;99.90;;;;;;5051684;28;20188;-86
2022/03/05 11:20:49;;;;;;;11.90;3.30;;;23.80;99.90;;;;;;5039392;28;20209;-86
2022/03/05 11:23:20;;;;;;;12.73;3.13;;;23.80;99.90;;;;;;5046769;28;20194;-85
2022/03/05 11:25:52;;;;;;;14.63;2.85;;;23.80;99.90;;;;;;5036795;28;20191;-86
2022/03/05 11:28:24;;;;;;;11.88;2.70;;;23.90;99.90;;;;;;5054826;28;20190;-85
2022/03/05 11:30:57;;;;;;;4.75;1.67;;;23.80;99.90;;;;;;5054857;28;20724;-88
2022/03/05 11:33:40;;;;;;;4.63;1.30;;;23.80;99.90;;;;;;5040990;28;20206;-87
2022/03/05 11:36:24;;;;;;;3.58;0.98;;;23.60;99.90;;;;;;5047896;28;20269;-86
2022/03/05 11:39:10;;;;;;;2.97;0.82;;;23.40;99.90;;;;;;5046055;28;20237;-86
2022/03/05 11:42:01;;;;;;;2.78;0.93;;;23.30;99.90;;;;;;5042256;28;20190;-86
2022/03/05 11:44:40;;;;;;;4.32;1.00;;;23.20;99.90;;;;;;5039451;28;20202;-86
2022/03/05 11:47:31;;;;;;;3.58;0.90;;;23.20;99.90;;;;;;5041763;28;20526;-88
2022/03/05 11:50:17;;;;;;;1.42;0.60;;;23.20;99.90;;;;;;5048793;28;20194;-87
2022/03/05 11:53:10;;;;;;;2.35;0.73;;;23.00;99.90;;;;;;5037716;28;20202;-88
2022/03/05 11:55:46;;;;;;;1.35;0.63;;;22.90;99.90;;;;;;5044232;28;20181;-87
2022/03/05 11:58:36;;;;;;;1.77;0.50;;;22.90;99.90;;;;;;5047374;28;20190;-87
2022/03/05 12:01:38;;;;;;;2.88;0.52;;;22.80;99.90;;;;;;5044986;28;20272;-88
2022/03/05 12:04:28;;;;;;;1.55;0.70;;;22.60;99.90;;;;;;5031278;28;20201;-90
2022/03/05 12:07:06;;;;;;;0.68;0.50;;;22.50;99.90;;;;;;5037482;28;20181;-87
2022/03/05 12:09:45;;;;;;;3.08;0.85;;;22.30;99.90;;;;;;5045258;28;20186;-92
2022/03/05 12:12:20;;;;;;;2.05;0.60;;;22.30;99.90;;;;;;5045522;28;20189;-88
2022/03/05 12:15:11;;;;;;;1.05;0.70;;;22.20;99.90;;;;;;5054924;28;20213;-87
2022/03/05 12:17:44;;;;;;;1.63;0.82;;;22.10;99.90;;;;;;5046815;28;20190;-89
2022/03/05 12:20:18;;;;;;;1.75;0.80;;;22.00;99.90;;;;;;5044805;28;20248;-90
2022/03/05 12:22:57;;;;;;;2.70;0.80;;;21.80;99.90;;;;;;5045812;28;20186;-86
2022/03/05 12:25:29;;;;;;;1.92;0.80;;;21.70;99.90;;;;;;5043664;28;20186;-90
2022/03/05 12:28:01;;;;;;;1.73;0.90;;;21.60;99.90;;;;;;5043623;28;20197;-88
2022/03/05 12:30:35;;;;;;;1.88;0.90;;;21.50;99.90;;;;;;5039419;28;20194;-89
2022/03/05 12:33:07;;;;;;;1.48;0.80;;;21.20;99.90;;;;;;5043727;28;20649;-88
2022/03/05 12:35:40;;;;;;;0.73;0.60;;;21.20;99.90;;;;;;5050994;28;20193;-88
2022/03/05 12:38:12;;;;;;;1.63;0.85;;;21.10;99.90;;;;;;5046734;28;20232;-86
2022/03/05 12:40:42;;;;;;;1.33;0.70;;;21.10;99.90;;;;;;5039504;28;20194;-85
2022/03/05 12:43:13;;;;;;;2.85;1.00;;;21.10;99.90;;;;;;5050077;28;20189;-88
2022/03/05 12:45:46;;;;;;;1.15;0.70;;;21.10;99.90;;;;;;5039423;28;20190;-89
2022/03/05 12:48:18;;;;;;;1.27;0.73;;;21.10;99.90;;;;;;5046283;28;20190;-86
2022/03/05 12:50:52;;;;;;;1.15;0.65;;;21.00;99.90;;;;;;5039921;28;20182;-87
2022/03/05 12:53:23;;;;;;;1.85;0.93;;;21.00;99.90;;;;;;5039461;28;20221;-87
2022/03/05 12:55:56;;;;;;;2.00;0.90;;;21.00;99.90;;;;;;5046913;28;20203;-87
2022/03/05 12:58:29;;;;;;;2.10;0.73;;;21.00;99.90;;;;;;5041379;28;20631;-85
2022/03/05 13:01:00;;;;;;;1.95;0.90;;;21.00;99.90;;;;;;5043154;28;20247;-85
2022/03/05 13:03:31;;;;;;;1.00;0.80;;;21.00;99.90;;;;;;5038483;28;20260;-85
2022/03/05 13:06:05;;;;;;;2.03;0.88;;;21.00;99.90;;;;;;5046654;28;20546;-86
2022/03/05 13:08:37;;;;;;;1.95;0.82;;;21.00;99.90;;;;;;5037560;28;20673;-85
2022/03/05 13:11:09;;;;;;;2.45;0.80;;;21.00;99.90;;;;;;5038982;28;20600;-86